LATI Airport Information

Runway Information
Runway 17 Length 9022 ft width 148 ft
Elevation 109 ft Threshold ft Heading 174
Runway 35 Length 9022 ft Width 148 ft
Elevation 126 ft Threshold ft Heading 354
Airport Frequencies
Type ACC Name ACC Frequency 127.5 MHZ
Type APP Name APP Frequency 133.15 MHZ
Type TWR Name TWR Frequency 122.5 MHZ
Airport Navaids
Type NDB Name Tirana Frequency 290 KHZ
Type VOR-DME Name Tirana Frequency 117700 KHZ
Airport Weather Information & NOTAM
ADDS - METARS form results

(2216 UTC 29 June 2022)
Data provider http://aviationweather.gov/metar/data/
 
METAR text: LATI 292150Z VRB02KT CAVOK 24/19 Q1012 NOSIG
Conditions at: LATI (TIRANA , AL) observed 2150 UTC 29 June 2022
Temperature: 24.0°C (75°F)
Dewpoint: 19.0°C (66°F) [RH = 74%]
Pressure (altimeter): 29.88 inches Hg (1012.0 mb)
Winds: variable direction winds at 2 MPH (2 knots; 1.0 m/s)
Visibility: 6 or more miles (10+ km)
Ceiling: ceiling and visibility are OK
Clouds: unknown
Weather: no significant weather observed at this time

METAR text: LATI 292120Z 31002KT CAVOK 25/19 Q1012 NOSIG
Conditions at: LATI (TIRANA , AL) observed 2120 UTC 29 June 2022
Temperature: 25.0°C (77°F)
Dewpoint: 19.0°C (66°F) [RH = 69%]
Pressure (altimeter): 29.88 inches Hg (1012.0 mb)
Winds: from the NW (310 degrees) at 2 MPH (2 knots; 1.0 m/s)
Visibility: 6 or more miles (10+ km)
Ceiling: ceiling and visibility are OK
Clouds: unknown
Weather: no significant weather observed at this time

Forecast for: LATI (TIRANA , AL)
Text: TAF LATI 291700Z 2918/3018 VRB03KT CAVOK TX35/3011Z TN22/3003Z
Forecast period: 1800 UTC 29 June 2022 to 1800 UTC 30 June 2022
Forecast type: FROM: standard forecast or significant change
Winds: variable direction winds at 3 MPH (3 knots; 1.5 m/s)
Visibility: 6 or more miles (10+ km)
Ceiling: unknown
Clouds: missing
Weather: no significant weather forecast for this period
Text: TEMPO 3010/3017 31013KT SCT040TCU BKN080
Forecast period: 1000 to 1700 UTC 30 June 2022
Forecast type: TEMPORARY: The following changes expected for less than half the time period
Winds: from the NW (310 degrees) at 15 MPH (13 knots; 6.7 m/s)
Visibility: missing
Ceiling: 8000 feet AGL
Clouds: scattered clouds at 4000 feet AGL
broken clouds at 8000 feet AGL
Weather: no significant weather forecast for this period